Date,TemperatureHighF,TemperatureAvgF,TemperatureLowF,DewpointHighF,DewpointAvgF,DewpointLowF,HumidityHigh,HumidityAvg,HumidityLow,PressureMaxIn,PressureMinIn,WindSpeedMaxMPH,WindSpeedAvgMPH,GustSpeedMaxMPH,PrecipitationSumIn
2012-1-3,74.0,53.7,40.0,35.0,30.0,24.0,82,46,18,30.33,30.21,4,1,5,0.00
2012-1-4,72.0,56.9,40.0,58.0,50.4,36.0,92,80,61,30.20,30.07,11,3,14,0.00
2012-1-5,79.0,62.2,49.0,62.0,56.2,47.0,93,82,53,30.13,29.98,8,2,10,0.00
2012-1-6,73.0,64.0,58.0,63.0,59.5,54.0,93,86,71,29.98,29.85,11,4,15,0.00
2012-1-7,77.0,63.8,56.0,66.0,59.6,53.0,93,86,67,29.90,29.82,11,4,15,0.01
2012-1-8,81.0,68.7,60.0,69.0,63.3,58.0,93,84,58,29.94,29.85,10,3,13,0.01
2012-1-9,68.0,66.0,63.0,66.0,63.9,61.0,93,92,90,29.89,29.70,13,4,17,5.43
2012-1-10,68.0,58.0,50.0,66.0,54.1,43.0,93,87,75,29.73,29.64,11,7,15,0.96
2012-1-11,68.0,56.0,48.0,54.0,46.6,42.0,91,72,46,29.71,29.57,12,6,18,0.00
2012-1-12,60.0,49.6,38.0,58.0,34.0,20.0,92,58,28,30.08,29.57,11,6,22,0.00
2012-1-13,57.0,39.2,30.0,35.0,27.0,23.0,82,63,27,30.16,30.07,6,1,9,0.00
2012-1-14,67.0,47.8,33.0,43.0,35.9,29.0,91,67,34,30.26,30.15,9,2,13,0.00
2012-1-15,73.0,53.5,36.0,53.0,44.6,34.0,92,75,35,30.25,30.11,8,3,11,0.00
2012-1-16,80.0,66.8,55.0,66.0,60.9,51.0,92,82,62,30.11,29.92,15,7,18,0.00
2012-1-17,70.0,67.3,59.0,68.0,64.1,46.0,93,89,67,29.98,29.85,13,7,17,0.05
2012-1-18,81.0,54.9,41.0,49.0,41.2,36.0,81,62,28,30.10,29.92,8,3,12,0.02
2012-1-19,71.0,60.7,47.0,65.0,56.7,42.0,93,86,75,29.92,29.76,10,4,14,0.00
2012-1-20,77.0,69.8,66.0,70.0,66.1,63.0,93,88,78,29.80,29.72,16,8,19,0.00
2012-1-21,75.0,69.8,68.0,70.0,66.9,65.0,93,90,82,29.81,29.73,13,6,16,0.00
2012-1-22,77.0,71.0,67.0,70.0,67.0,63.0,92,87,76,29.76,29.65,14,8,19,0.01
2012-1-23,85.0,69.1,59.0,68.0,58.1,50.0,93,71,34,29.89,29.72,11,4,15,0.01
2012-1-24,64.0,57.6,53.0,58.0,49.7,45.0,92,75,63,29.91,29.83,7,3,11,0.10
2012-1-30,73.0,62.9,58.0,57.0,53.5,50.0,83,72,58,30.19,30.05,7,4,9,0.00
2012-1-31,77.0,65.5,56.0,67.0,60.7,53.0,93,85,70,30.04,29.92,10,4,13,0.09
2012-2-1,74.0,67.6,61.0,71.0,64.8,59.0,93,91,85,29.96,29.88,14,4,17,0.98
2012-2-2,74.0,66.9,60.0,68.0,62.9,57.0,93,87,77,29.98,29.87,7,2,10,0.12
2012-2-3,80.0,71.8,67.0,72.0,62.9,48.0,86,75,47,29.91,29.83,13,7,17,0.28
2012-2-4,71.0,65.6,60.0,64.0,39.9,23.0,81,42,18,29.96,29.82,10,4,13,2.31
2012-2-5,60.0,50.8,48.0,47.0,43.2,38.0,80,76,45,30.10,29.95,8,5,14,0.02
2012-2-6,55.0,46.8,43.0,47.0,40.6,36.0,81,79,73,30.10,30.04,7,4,11,0.01
2012-2-7,72.0,58.6,46.0,55.0,48.9,42.0,87,71,48,30.08,29.96,5,2,7,0.00
2012-2-8,68.0,57.5,48.0,50.0,46.4,44.0,86,68,45,30.22,30.07,9,4,17,0.00
2012-2-9,63.0,56.6,49.0,54.0,48.7,45.0,88,76,57,30.16,30.01,8,2,13,0.02
2012-2-10,60.0,56.8,53.0,56.0,53.4,50.0,92,89,83,30.08,29.88,7,3,13,0.87
2012-2-11,58.0,51.0,44.0,52.0,37.7,29.0,89,63,34,30.38,30.06,11,6,19,0.01
2012-2-12,51.0,44.9,37.0,39.0,30.0,23.0,71,57,40,30.42,30.17,12,4,18,0.00
2012-2-13,69.0,57.5,48.0,65.0,51.2,39.0,93,80,67,30.17,29.66,15,6,23,0.27
2012-2-14,68.0,59.3,54.0,61.0,55.5,52.0,93,88,73,29.89,29.76,6,2,11,0.21
2012-2-15,76.0,68.7,56.0,72.0,65.6,53.0,93,90,80,29.87,29.72,13,6,23,0.03
2012-2-16,74.0,68.7,64.0,70.0,64.3,59.0,94,86,72,30.01,29.85,8,3,13,0.03
2012-2-17,71.0,65.4,59.0,64.0,59.9,55.0,91,83,74,29.95,29.77,7,4,13,0.20
2012-2-18,66.0,64.4,62.0,64.0,62.0,59.0,93,92,89,29.77,29.52,15,4,27,3.23
2012-2-19,67.0,60.3,55.0,59.0,52.2,49.0,90,75,57,29.96,29.67,13,7,21,0.01
2012-2-20,66.0,60.6,54.0,59.0,54.5,49.0,88,80,71,30.02,29.93,11,5,17,0.00
2012-2-21,78.0,67.4,59.0,66.0,62.3,57.0,93,85,62,30.03,29.85,7,2,10,0.00
2012-2-22,78.0,71.9,67.0,74.0,69.3,65.0,94,92,85,29.85,29.58,13,6,22,0.00
2012-2-23,78.0,74.3,72.0,73.0,71.5,70.0,94,91,84,29.58,29.47,14,10,21,0.00
2012-2-24,75.0,66.9,59.0,73.0,46.9,24.0,93,53,21,30.16,29.52,12,7,22,0.00
2012-2-25,62.0,57.3,53.0,49.0,36.2,27.0,78,47,26,30.23,30.10,10,3,20,0.00
2012-2-26,70.0,61.0,51.0,59.0,52.2,45.0,88,74,55,30.11,29.98,9,3,15,0.00
2012-2-27,73.0,66.3,62.0,65.0,62.2,58.0,93,87,76,30.11,30.01,10,5,17,0.00
2012-2-28,78.0,71.1,66.0,74.0,68.5,63.0,94,92,85,30.06,29.92,8,5,13,0.01
2012-2-29,82.0,76.0,72.0,75.0,72.0,70.0,94,88,72,30.06,29.93,10,6,17,0.01
2012-3-1,82.0,76.5,74.0,75.0,72.6,70.0,94,88,68,29.96,29.76,12,6,18,0.00
2012-3-2,81.0,77.0,74.0,75.0,73.4,71.0,92,89,79,29.80,29.68,11,7,21,0.00
2012-3-3,76.0,62.8,52.0,74.0,49.7,34.0,92,65,29,30.13,29.69,12,5,21,0.03
2012-3-4,75.0,61.0,46.0,53.0,43.6,33.0,82,56,22,30.23,30.13,10,4,16,0.01
2012-3-5,80.0,64.8,53.0,60.0,54.0,46.0,92,72,30,30.36,30.23,8,2,11,0.00
2012-3-6,78.0,67.1,56.0,66.0,58.8,54.0,94,77,51,30.31,30.15,13,5,22,0.00
2012-3-7,82.0,74.8,68.0,72.0,68.1,63.0,91,80,62,30.16,30.04,16,9,26,0.00
2012-3-8,82.0,77.8,75.0,75.0,73.5,72.0,93,87,79,30.09,29.98,19,9,32,0.00
2012-3-9,75.0,63.1,56.0,73.0,59.9,52.0,93,89,79,30.30,30.02,11,6,21,0.73
2012-3-10,69.0,63.4,58.0,59.0,52.4,-99.9,80,70,61,30.25,30.11,9,5,16,0.05
2012-3-11,81.0,72.7,66.0,73.0,69.1,60.0,93,88,78,30.11,29.97,16,8,28,0.80
2012-3-12,79.0,75.8,72.0,76.0,73.0,69.0,93,91,86,30.13,30.01,9,4,14,0.84
2012-3-13,83.0,77.8,75.0,76.0,73.5,72.0,94,87,71,30.17,30.09,7,4,12,0.01
2012-3-14,84.0,78.6,75.0,74.0,73.0,72.0,92,83,70,30.19,30.09,9,4,13,0.00
2012-3-15,84.0,78.4,75.0,74.0,72.5,71.0,91,83,67,30.22,30.11,8,5,13,0.00
2012-3-16,83.0,77.6,73.0,74.0,72.4,71.0,94,84,70,30.17,30.08,9,4,15,0.00
2012-3-17,85.0,79.1,75.0,75.0,73.2,72.0,92,83,68,30.13,30.04,10,6,16,0.00
2012-3-18,84.0,79.7,77.0,76.0,74.0,73.0,90,83,72,30.09,30.00,11,8,23,0.00
2012-3-19,83.0,78.9,76.0,74.0,72.6,71.0,89,81,72,30.01,29.83,16,10,27,0.00
2012-3-20,81.0,77.9,78.0,75.0,71.8,-99.9,89,84,77,29.83,29.65,21,14,35,0.48
2012-3-21,78.0,67.2,61.0,75.0,60.2,55.0,90,79,59,29.97,29.69,17,5,28,3.17
2012-3-22,80.0,70.1,62.0,66.0,61.1,-99.9,91,76,54,29.99,29.90,7,-5,13,0.01
2012-3-23,88.0,71.3,60.0,68.0,60.7,52.0,93,74,30,30.03,29.91,4,1,8,0.01
2012-3-24,87.0,75.4,65.0,70.0,62.5,56.0,92,68,35,30.00,29.91,6,2,11,0.01
2012-3-25,88.0,75.6,63.0,69.0,62.0,52.0,93,68,29,30.04,29.93,6,1,9,0.01
2012-3-26,87.0,77.1,68.0,70.0,66.7,62.0,93,73,44,30.06,29.95,5,1,9,0.01
2012-3-27,85.0,75.3,68.0,72.0,67.2,63.0,92,78,48,30.09,29.98,6,1,13,0.01
2012-3-28,84.0,75.8,69.0,74.0,69.1,66.0,92,81,58,30.08,29.96,10,3,17,0.00
2012-3-29,84.0,76.2,71.0,74.0,70.3,68.0,93,83,59,29.97,29.85,7,2,15,0.02
2012-3-30,84.0,75.9,69.0,75.0,70.9,66.0,93,85,71,29.91,29.80,7,3,13,0.30
2012-3-31,86.0,78.4,70.0,76.0,72.7,68.0,94,83,67,29.93,29.83,7,2,13,0.01
2012-4-1,86.0,79.8,73.0,76.0,73.8,71.0,93,82,66,29.88,29.77,8,3,17,0.01
2012-4-2,83.0,77.1,69.0,77.0,72.9,65.0,91,87,78,29.83,29.70,14,4,29,0.60
2012-4-3,87.0,81.2,74.0,78.0,73.9,70.0,92,79,62,29.88,29.76,13,7,20,0.01
2012-4-4,86.0,77.4,69.0,78.0,71.9,66.0,91,84,67,29.90,29.73,10,4,16,1.13
2012-4-5,88.0,79.9,73.0,75.0,72.2,66.0,93,79,51,29.83,29.72,8,3,17,0.01
2012-4-6,85.0,75.5,66.0,67.0,62.9,55.0,88,67,37,30.02,29.83,6,2,11,0.01
2012-4-7,86.0,75.2,64.0,70.0,65.0,60.0,88,72,44,30.14,30.01,7,2,11,0.00
2012-4-8,86.0,76.8,68.0,72.0,67.4,60.0,93,75,43,30.23,30.11,5,1,9,0.00
2012-4-9,87.0,77.8,70.0,70.0,67.4,63.0,90,72,46,30.16,30.03,5,2,11,0.00
2012-4-10,88.0,78.0,69.0,72.0,68.7,66.0,92,75,52,30.11,30.01,7,2,12,0.00
2012-4-11,89.0,78.9,71.0,72.0,68.4,64.0,91,72,45,30.10,30.00,7,2,11,0.00
2012-4-12,82.0,75.9,71.0,72.0,69.5,65.0,91,81,68,30.09,30.01,9,4,16,0.01
2012-4-13,86.0,79.2,72.0,74.0,71.5,69.0,92,78,61,30.05,29.97,11,4,19,0.01
2012-4-14,86.0,80.4,77.0,74.0,70.5,-99.9,86,75,61,30.03,29.91,15,8,28,0.00
2012-4-15,87.0,81.9,78.0,77.0,74.0,71.0,84,77,70,29.93,29.85,15,10,26,0.00
2012-4-16,81.0,77.1,71.0,76.0,71.7,68.0,90,84,71,30.09,29.90,16,5,36,0.53
2012-4-17,78.0,72.4,65.0,71.0,66.3,59.0,92,82,60,30.14,30.00,10,5,18,0.32
2012-4-18,83.0,70.5,59.0,62.0,59.1,56.0,91,70,43,30.14,29.99,7,2,13,0.00
2012-4-19,83.0,72.5,62.0,66.0,62.8,59.0,91,73,52,30.01,29.84,6,2,11,0.00
2012-4-20,84.0,73.9,68.0,69.0,65.6,63.0,88,76,54,29.86,29.75,8,2,14,0.00
2012-4-21,71.0,66.8,61.0,60.0,58.9,57.0,89,76,65,29.93,29.73,11,6,21,0.86
2012-4-22,86.0,71.7,57.0,62.0,56.4,51.0,89,62,30,30.01,29.90,10,3,19,0.01
2012-4-23,78.0,68.4,57.0,55.0,50.1,44.0,79,54,31,30.15,30.01,8,4,15,0.00
2012-4-24,81.0,68.9,56.0,64.0,55.8,49.0,92,67,36,30.09,29.97,7,2,13,0.00
2012-4-25,84.0,77.3,70.0,72.0,68.6,64.0,85,75,65,29.99,29.92,12,6,20,0.00
2012-4-26,85.0,81.6,76.0,73.0,72.0,72.0,86,73,66,29.99,29.93,10,6,16,0.00
2012-4-27,77.0,76.3,76.0,71.0,70.6,70.0,84,83,83,29.92,29.90,4,3,10,0.00
2012-4-30,88.0,82.4,79.0,75.0,74.4,73.0,88,77,64,30.01,29.97,7,4,12,0.00
2012-5-1,87.0,78.8,73.0,77.0,74.1,70.0,93,86,68,30.00,29.95,8,3,14,0.00
2012-5-2,91.0,86.3,81.0,79.0,77.2,75.0,86,75,64,29.90,29.81,7,4,13,0.00
2012-5-3,91.0,83.5,76.0,78.0,75.4,73.0,93,78,59,29.97,29.88,6,2,13,0.00
2012-5-4,91.0,83.2,76.0,78.0,74.6,71.0,93,77,53,30.00,29.92,7,2,12,0.00
2012-5-5,91.0,83.2,77.0,78.0,74.2,-99.9,92,78,59,29.95,29.86,8,3,15,0.00
2012-5-6,92.0,84.2,79.0,78.0,76.0,74.0,90,78,56,29.93,29.84,8,3,14,0.00
2012-5-7,92.0,83.4,76.0,78.0,74.2,71.0,91,75,52,29.89,29.78,7,2,13,0.00
2012-5-8,82.0,77.1,75.0,76.0,73.0,71.0,91,87,74,29.90,29.83,6,1,9,0.35
2012-5-9,87.0,79.5,74.0,74.0,71.6,68.0,91,78,55,29.94,29.85,6,2,12,0.05
2012-5-10,86.0,78.6,69.0,72.0,65.5,58.0,89,67,39,29.95,29.84,9,3,15,0.01
2012-5-11,81.0,75.9,70.0,73.0,70.9,67.0,91,85,75,29.94,29.81,13,6,21,1.18
2012-5-12,85.0,76.5,72.0,75.0,70.3,-99.9,93,84,59,30.04,29.90,8,3,17,0.34
2012-5-13,85.0,76.5,70.0,70.0,67.9,66.0,92,76,55,30.09,29.98,7,3,12,0.01
2012-5-14,88.0,78.3,69.0,70.0,65.3,59.0,90,67,38,30.05,29.91,6,2,11,0.01
2012-5-15,87.0,78.5,70.0,72.0,66.8,62.0,89,70,43,30.00,29.93,7,2,12,0.01
2012-5-16,90.0,78.6,71.0,71.0,67.6,63.0,88,70,42,30.01,29.90,8,3,16,0.01
2012-5-17,92.0,81.0,71.0,73.0,67.7,59.0,93,68,34,29.98,29.90,5,2,11,0.00
2012-5-18,92.0,81.7,70.0,75.0,69.0,60.0,93,69,36,29.96,29.88,6,1,12,0.00
2012-5-19,89.0,79.2,73.0,77.0,72.0,68.0,93,80,51,29.98,29.90,7,2,13,0.00
2012-5-20,93.0,86.2,76.0,77.0,71.5,66.0,92,64,43,30.08,29.98,6,3,13,0.00
2012-5-21,96.0,85.4,76.0,77.0,72.1,67.0,90,67,40,30.07,29.94,7,2,11,0.00
2012-5-22,87.0,79.7,75.0,76.0,72.9,71.0,89,80,66,29.99,29.93,6,2,10,0.00
2012-5-23,90.0,85.3,79.0,78.0,73.9,71.0,90,70,56,29.84,29.75,9,5,19,0.02
2012-5-24,89.0,84.4,80.0,77.0,74.2,72.0,83,72,61,29.82,29.72,9,5,20,0.00
2012-5-25,91.0,85.2,79.0,78.0,76.2,74.0,88,75,61,30.01,29.80,7,4,15,0.00
2012-5-26,93.0,83.9,75.0,80.0,76.0,72.0,93,78,60,30.06,29.97,5,2,11,0.00
2012-5-27,95.0,85.1,75.0,80.0,74.4,63.0,93,74,35,30.00,29.89,5,2,18,0.00
2012-5-28,94.0,84.6,76.0,79.0,73.7,67.0,93,73,43,29.94,29.84,6,2,11,0.00
2012-5-29,93.0,85.4,78.0,79.0,76.4,72.0,89,75,59,29.91,29.83,10,5,17,0.00
2012-5-30,94.0,86.6,82.0,80.0,78.0,76.0,88,76,57,29.91,29.75,9,4,16,0.00
2012-5-31,91.0,83.9,75.0,80.0,76.5,70.0,90,79,56,29.86,29.72,12,3,26,0.02
2012-6-1,93.0,83.4,74.0,75.0,67.0,59.0,92,62,33,29.93,29.82,7,2,11,0.02
2012-6-2,92.0,81.4,70.0,75.0,69.9,-99.9,87,71,53,29.98,29.88,9,3,16,0.00
2012-6-3,93.0,85.5,76.0,79.0,76.6,73.0,92,76,60,29.97,29.89,9,3,15,0.00
2012-6-4,95.0,87.5,81.0,79.0,77.3,74.0,86,73,55,29.91,29.78,8,3,15,0.00
2012-6-5,98.0,88.3,80.0,81.0,77.3,73.0,92,72,45,29.82,29.68,7,3,13,0.00
2012-6-6,98.0,87.5,81.0,81.0,78.0,72.0,92,75,49,29.80,29.72,10,2,25,0.00
2012-6-7,96.0,84.8,76.0,78.0,75.4,73.0,91,75,52,29.88,29.79,13,3,22,0.33
2012-6-8,95.0,83.4,76.0,78.0,75.4,73.0,93,79,50,29.88,29.77,7,2,15,0.35
2012-6-9,93.0,83.1,77.0,78.0,74.7,-99.9,92,80,55,29.84,29.72,7,2,13,0.02
2012-6-10,96.0,86.6,78.0,80.0,77.7,75.0,93,76,52,29.85,29.74,9,3,16,0.00
2012-6-11,95.0,89.6,85.0,83.0,81.1,79.0,88,77,63,29.98,29.84,11,4,18,0.00
2012-6-12,92.0,85.8,79.0,82.0,78.2,72.0,89,79,62,30.11,29.94,11,3,23,0.00
2012-6-13,96.0,85.9,78.0,80.0,76.4,70.0,90,75,44,30.01,29.88,8,3,13,0.01
2012-6-14,90.0,82.8,77.0,81.0,76.0,73.0,90,81,66,29.99,29.88,7,2,14,0.06
2012-6-15,94.0,83.8,78.0,80.0,77.4,74.0,91,82,59,30.00,29.91,12,2,17,0.71
2012-6-16,93.0,83.1,77.0,79.0,74.6,-99.9,92,79,53,30.04,29.96,14,3,21,0.05
2012-6-17,92.0,82.5,75.0,77.0,73.7,71.0,89,76,57,30.01,29.90,7,3,14,0.05
2012-6-18,89.0,81.9,77.0,80.0,77.4,72.0,92,87,76,29.91,29.81,8,3,16,2.70
2012-6-19,92.0,85.4,80.0,81.0,77.4,74.0,93,78,59,29.96,29.88,11,4,21,0.33
2012-6-20,92.0,85.0,78.0,79.0,75.1,68.0,92,74,47,29.98,29.92,9,4,16,0.01
2012-6-21,93.0,84.7,77.0,79.0,75.7,72.0,91,76,53,29.98,29.86,7,2,12,0.00
2012-6-22,96.0,87.0,78.0,78.0,73.7,68.0,88,67,42,29.90,29.79,7,2,14,0.00
2012-6-23,98.0,88.8,79.0,82.0,77.0,75.0,88,70,48,29.85,29.79,8,2,16,0.00
2012-6-24,102.0,91.6,83.0,82.0,78.3,73.0,91,68,41,29.88,29.76,7,2,14,0.00
2012-6-25,102.0,91.2,80.0,79.0,74.4,69.0,84,60,36,29.81,29.68,6,2,11,0.00
2012-6-26,103.0,92.6,82.0,80.0,75.3,72.0,80,59,39,29.75,29.67,6,2,11,0.00
2012-6-27,102.0,89.3,77.0,82.0,74.3,68.0,88,63,40,29.93,29.75,5,2,11,0.00
2012-6-28,98.0,90.1,83.0,84.0,80.3,76.0,92,75,51,30.04,29.93,7,2,11,0.00
2012-6-29,97.0,88.8,81.0,83.0,77.9,71.0,92,72,44,30.00,29.88,6,2,13,0.00
2012-6-30,95.0,87.3,79.0,82.0,79.0,75.0,91,77,57,29.92,29.86,8,3,16,0.00
2012-7-1,96.0,87.4,80.0,82.0,77.6,72.0,92,75,49,30.03,29.91,7,2,13,0.00
2012-7-2,97.0,87.3,78.0,82.0,76.7,74.0,93,73,49,30.09,29.98,7,1,13,0.00
2012-7-3,98.0,87.7,79.0,82.0,77.2,74.0,91,73,51,30.05,29.93,7,2,11,0.00
2012-7-4,97.0,87.9,79.0,82.0,77.3,74.0,92,73,48,30.03,29.95,9,2,14,0.00
2012-7-5,97.0,88.2,80.0,82.0,77.3,73.0,92,72,49,30.04,29.94,7,2,14,0.00
2012-7-6,97.0,87.6,80.0,81.0,77.6,73.0,92,74,51,30.03,29.91,7,2,15,0.00
2012-7-7,91.0,84.3,80.0,82.0,77.6,75.0,92,81,62,30.05,29.93,7,2,11,0.52
2012-7-8,90.0,85.3,81.0,79.0,77.8,76.0,90,79,65,30.03,29.93,8,2,13,0.02
2012-7-9,84.0,81.1,78.0,81.0,77.3,74.0,93,89,82,30.01,29.88,9,3,16,3.09
2012-7-10,87.0,80.8,78.0,79.0,76.9,75.0,92,88,76,29.95,29.86,13,3,20,1.11
2012-7-11,86.0,82.5,78.0,80.0,77.9,75.0,93,86,74,29.96,29.86,10,3,15,2.02
2012-7-12,88.0,82.0,77.0,83.0,77.8,73.0,91,88,75,29.99,29.88,7,2,13,0.18
2012-7-13,81.0,79.9,78.0,79.0,77.0,75.0,93,91,89,29.98,29.91,5,2,11,0.53
2012-7-16,96.0,87.7,81.0,82.0,79.6,74.0,91,78,53,30.02,29.92,11,2,21,0.53
2012-7-17,95.0,88.5,82.0,83.0,80.2,77.0,93,78,59,29.99,29.90,6,1,12,0.53
2012-7-18,97.0,89.8,82.0,84.0,80.5,78.0,93,76,55,30.03,29.93,6,1,11,0.00
2012-7-19,96.0,89.5,83.0,83.0,80.9,77.0,90,77,60,30.09,29.98,9,3,16,0.00
2012-7-20,97.0,90.3,84.0,84.0,81.3,79.0,89,76,57,30.05,29.91,10,5,18,0.00
2012-7-21,94.0,84.7,77.0,83.0,79.3,74.0,92,84,68,30.03,29.88,15,4,27,2.83
2012-7-22,93.0,84.3,81.0,82.0,79.2,76.0,93,86,63,30.05,29.93,7,2,11,0.11
2012-7-23,94.0,86.2,80.0,82.0,79.3,77.0,93,81,58,30.10,30.03,7,2,18,0.28
2012-7-24,96.0,88.6,82.0,83.0,80.4,79.0,93,78,60,30.09,29.96,6,2,14,0.28
2012-7-25,95.0,89.2,83.0,83.0,81.0,79.0,91,77,62,30.00,29.91,8,3,14,0.01
2012-7-26,95.0,88.5,84.0,83.0,81.0,78.0,89,79,64,29.99,29.88,7,3,15,0.17
2012-7-27,96.0,89.5,83.0,84.0,80.3,75.0,92,76,51,30.03,29.95,7,3,13,0.01
2012-7-28,97.0,87.3,77.0,83.0,80.1,73.0,91,80,58,30.09,29.98,7,3,19,1.29
2012-7-29,98.0,88.7,81.0,84.0,80.9,78.0,93,79,60,30.05,29.92,8,3,14,0.07
2012-7-30,97.0,89.8,84.0,84.0,80.9,77.0,91,76,53,30.02,29.91,9,3,13,0.01
2012-7-31,97.0,90.2,85.0,84.0,81.3,79.0,88,76,56,30.00,29.91,8,4,14,0.00
2012-8-1,97.0,90.8,84.0,84.0,81.4,77.0,89,75,56,29.98,29.87,8,4,13,0.00
2012-8-2,97.0,90.8,86.0,84.0,81.8,80.0,88,76,60,29.94,29.84,7,4,14,0.00
2012-8-3,97.0,90.8,86.0,83.0,80.6,76.0,87,73,51,29.94,29.83,8,4,14,0.00
2012-8-4,96.0,89.5,84.0,83.0,80.4,78.0,88,76,58,30.00,29.88,5,1,10,0.00
2012-8-5,97.0,88.6,82.0,83.0,80.7,78.0,93,79,57,30.08,29.97,7,2,13,0.00
2012-8-6,97.0,87.5,82.0,83.0,80.2,77.0,92,80,57,30.05,29.92,7,1,10,0.00
2012-8-7,99.0,88.5,80.0,82.0,79.5,75.0,93,77,52,29.97,29.87,5,1,9,0.00
2012-8-8,94.0,86.9,83.0,84.0,80.9,78.0,91,83,66,29.99,29.89,6,1,14,0.10
2012-8-9,96.0,88.8,83.0,84.0,81.3,76.0,92,80,55,29.95,29.85,10,4,19,0.06
2012-8-10,96.0,89.7,83.0,83.0,81.6,78.0,92,78,63,29.90,29.79,12,5,20,0.00
2012-8-11,98.0,88.7,81.0,84.0,80.1,-99.9,90,78,60,29.93,29.83,7,3,12,0.03
2012-8-12,98.0,89.6,83.0,84.0,80.5,77.0,92,76,53,29.97,29.89,8,2,13,0.01
2012-8-13,98.0,90.5,84.0,84.0,80.9,75.0,89,75,54,30.01,29.89,11,4,19,0.00
2012-8-14,98.0,91.0,86.0,83.0,81.3,79.0,87,74,56,29.97,29.87,9,5,16,0.00
2012-8-15,98.0,89.7,85.0,83.0,80.3,77.0,88,75,53,29.97,29.87,8,3,15,0.00
2012-8-16,98.0,90.2,83.0,84.0,80.9,78.0,90,75,56,30.01,29.91,8,2,14,0.00
2012-8-17,98.0,88.4,82.0,84.0,80.1,76.0,91,78,55,29.99,29.88,10,2,15,0.38
2012-8-18,92.0,84.2,78.0,84.0,79.4,75.0,93,86,68,29.91,29.84,8,2,20,0.65
2012-8-19,90.0,82.7,77.0,81.0,77.3,74.0,93,84,65,29.93,29.80,6,1,13,0.73
2012-8-20,95.0,86.1,79.0,80.0,75.9,71.0,93,74,47,29.88,29.81,7,2,11,0.01
2012-8-21,92.0,83.8,76.0,78.0,76.2,73.0,92,79,61,29.97,29.85,6,2,10,0.01
2012-8-22,91.0,83.9,79.0,79.0,76.1,74.0,89,78,63,30.04,29.96,8,3,14,0.00
2012-8-23,83.0,78.9,78.0,79.0,75.9,75.0,93,91,86,30.01,29.97,5,2,8,0.00
2012-8-24,91.0,81.9,78.0,82.0,78.4,75.0,93,90,69,29.97,29.91,10,3,19,1.34
2012-8-25,89.0,81.6,77.0,81.0,77.6,74.0,93,88,74,30.00,29.90,8,2,16,0.50
2012-8-26,94.0,85.7,79.0,84.0,79.0,75.0,93,82,54,30.04,29.93,5,2,12,0.01
2012-8-27,97.0,87.3,80.0,82.0,78.4,75.0,93,77,51,30.00,29.82,6,2,11,0.01
2012-8-28,97.0,87.8,80.0,79.0,75.8,73.0,88,69,49,29.85,29.63,12,6,22,0.00
2012-8-29,93.0,87.2,84.0,78.0,76.3,75.0,76,70,61,29.63,29.44,19,12,31,0.00
2012-8-30,93.0,84.8,80.0,83.0,77.1,74.0,91,78,64,29.80,29.42,14,7,27,0.01
2012-8-31,95.0,89.6,85.0,85.0,82.4,78.0,91,80,65,30.02,29.80,8,5,16,0.11
2012-9-1,94.0,86.4,81.0,85.0,81.2,77.0,92,85,69,30.10,30.01,14,2,21,0.31
2012-9-2,95.0,88.0,85.0,85.0,82.6,79.0,92,84,68,30.05,29.93,9,3,14,0.03
2012-9-3,95.0,88.8,83.0,83.0,81.2,79.0,89,79,64,30.01,29.90,8,4,13,0.01
2012-9-4,96.0,88.6,83.0,83.0,80.4,79.0,89,78,59,29.96,29.86,9,4,15,0.01
2012-9-5,97.0,88.8,83.0,83.0,80.8,79.0,90,79,56,29.91,29.82,9,4,14,0.00
2012-9-6,98.0,89.0,82.0,84.0,81.2,78.0,93,79,53,29.93,29.83,7,2,12,0.00
2012-9-7,97.0,89.0,83.0,83.0,80.5,78.0,92,77,58,29.89,29.76,7,2,12,0.00
2012-9-8,94.0,86.3,77.0,82.0,79.2,72.0,91,80,67,29.97,29.79,9,4,17,0.00
2012-9-9,89.0,78.0,67.0,72.0,65.7,61.0,89,69,40,30.06,29.96,8,2,16,0.00
2012-9-10,90.0,77.7,66.0,69.0,64.9,60.0,90,68,38,30.09,29.99,6,2,12,0.00
2012-9-11,91.0,80.4,69.0,74.0,69.2,65.0,89,71,46,30.09,30.01,9,2,16,0.00
2012-9-12,90.0,81.7,77.0,79.0,76.3,73.0,92,84,66,30.08,29.98,8,2,14,0.34
2012-9-13,93.0,82.4,76.0,80.0,75.7,72.0,93,81,52,30.10,30.01,9,2,14,0.16
2012-9-14,93.0,83.0,75.0,79.0,75.6,73.0,93,79,55,30.11,30.02,7,2,11,0.16
2012-9-15,94.0,83.8,75.0,78.0,73.3,69.0,92,73,45,30.09,29.99,4,1,11,0.00
2012-9-16,93.0,83.7,75.0,78.0,74.2,68.0,91,75,45,30.01,29.87,6,1,13,0.00
2012-9-17,87.0,80.6,75.0,78.0,75.1,72.0,93,84,67,29.89,29.69,8,3,14,2.02
2012-9-18,90.0,80.5,74.0,75.0,72.6,70.0,92,78,54,29.98,29.79,7,3,13,0.08
2012-9-19,86.0,76.2,68.0,72.0,62.9,56.0,89,66,37,30.09,29.98,7,3,12,0.00
2012-9-20,87.0,74.5,62.0,65.0,60.5,54.0,90,65,33,30.07,29.96,5,1,15,0.00
2012-9-21,92.0,79.6,68.0,77.0,69.1,62.0,91,72,48,30.00,29.91,6,1,11,0.00
2012-9-22,93.0,82.4,74.0,81.0,73.5,-99.9,94,78,49,30.06,29.96,4,1,11,0.00
2012-9-23,95.0,83.9,75.0,80.0,75.2,71.0,94,78,48,30.14,30.06,4,1,8,0.01
2012-9-24,95.0,84.2,76.0,79.0,76.4,74.0,93,79,53,30.13,30.02,5,1,10,0.01
2012-9-25,92.0,84.2,77.0,81.0,76.2,74.0,94,79,57,30.06,29.98,5,2,11,0.01
2012-9-26,93.0,82.5,74.0,78.0,74.2,71.0,92,78,55,30.06,29.97,5,2,10,0.01
2012-9-27,93.0,82.9,74.0,79.0,75.5,72.0,93,80,52,30.09,29.96,5,2,10,0.00
2012-9-28,91.0,82.9,78.0,82.0,77.6,74.0,93,85,64,30.01,29.90,6,2,13,0.04
2012-9-29,83.0,80.5,76.0,80.0,77.8,74.0,93,92,86,29.93,29.75,9,2,16,1.51
2012-9-30,88.0,80.3,70.0,81.0,75.6,63.0,93,86,72,29.75,29.50,11,6,21,1.59
2012-10-1,85.0,73.7,67.0,65.0,63.4,60.0,90,72,45,29.77,29.64,9,5,18,0.02
2012-10-2,87.0,74.4,64.0,70.0,63.0,56.0,92,71,35,29.93,29.77,4,1,9,0.01
2012-10-3,89.0,76.9,66.0,70.0,65.9,61.0,92,72,40,30.05,29.93,6,1,9,0.00
2012-10-4,90.0,79.4,70.0,79.0,72.7,68.0,93,81,56,30.15,30.05,8,2,13,0.01
2012-10-5,90.0,79.5,72.0,78.0,71.7,66.0,94,79,46,30.11,29.97,5,1,11,0.01
2012-10-6,74.0,72.5,71.0,72.0,70.5,69.0,92,92,91,29.98,29.97,0,0,0,0.01
2012-10-8,69.0,64.4,61.0,59.0,57.8,56.0,87,79,68,30.10,30.07,1,0,3,0.00
2012-10-9,85.0,69.2,55.0,70.0,62.1,52.0,92,80,55,30.11,29.96,5,1,8,0.00
2012-10-10,92.0,79.4,71.0,77.0,72.5,68.0,92,81,54,30.11,30.00,4,1,11,0.00
2012-10-11,91.0,79.8,72.0,76.0,71.4,68.0,94,78,48,30.17,30.09,8,2,13,0.01
2012-10-12,89.0,79.4,71.0,78.0,73.7,69.0,94,83,60,30.19,30.11,7,2,11,0.01
2012-10-13,90.0,81.8,75.0,78.0,75.0,73.0,94,81,62,30.13,30.00,8,4,16,0.01
2012-10-14,89.0,83.0,78.0,80.0,75.9,73.0,92,80,59,30.08,29.95,10,3,16,0.01
2012-10-15,86.0,77.9,71.0,78.0,66.7,59.0,92,71,41,30.03,29.91,6,2,15,0.42
2012-10-16,86.0,73.7,63.0,75.0,66.7,59.0,90,80,60,29.97,29.76,8,2,19,0.19
2012-10-17,89.0,77.6,67.0,79.0,72.0,64.0,93,84,67,29.83,29.65,11,4,18,0.19
2012-10-18,85.0,77.9,68.0,80.0,60.8,47.0,92,60,29,29.92,29.69,11,4,18,0.32
2012-10-19,85.0,71.3,59.0,59.0,51.7,37.0,86,56,19,29.98,29.87,8,2,13,0.01
2012-10-20,86.0,71.1,57.0,66.0,58.7,51.0,91,70,30,29.97,29.88,6,2,10,0.00
2012-10-21,88.0,77.5,67.0,75.0,69.4,64.0,91,78,54,30.02,29.90,8,3,16,0.00
2012-10-22,88.0,77.1,69.0,75.0,70.7,67.0,94,82,58,30.05,29.97,8,2,16,0.01
2012-10-23,87.0,77.2,68.0,76.0,71.3,66.0,94,83,64,30.01,29.93,5,2,10,0.01
2012-10-24,88.0,78.9,72.0,78.0,73.0,70.0,94,83,62,30.01,29.91,9,3,15,0.01
2012-10-25,89.0,80.0,73.0,78.0,73.1,69.0,94,81,54,29.94,29.86,9,2,16,0.01
2012-10-26,81.0,71.0,59.0,78.0,67.4,53.0,94,88,80,30.10,29.90,11,4,19,0.01
2012-10-27,70.0,60.2,53.0,54.0,46.9,41.0,84,63,35,30.12,29.98,11,7,20,0.01
2012-10-28,72.0,57.6,47.0,46.0,41.3,33.0,84,59,25,30.17,30.07,10,4,16,0.00
2012-10-29,73.0,57.9,46.0,46.0,42.1,37.0,83,60,29,30.24,30.09,11,2,16,0.00
2012-10-30,74.0,59.7,44.0,58.0,48.5,41.0,91,70,34,30.13,29.99,7,2,12,0.00
2012-10-31,84.0,70.3,57.0,70.0,62.9,55.0,94,79,50,30.03,29.92,8,3,15,0.00
2012-11-1,88.0,74.2,61.0,74.0,67.7,59.0,94,82,49,30.05,29.94,7,2,12,0.01
2012-11-2,87.0,76.4,66.0,77.0,70.6,64.0,94,83,58,30.05,29.97,7,2,14,0.02
2012-11-3,88.0,75.4,67.0,78.0,68.7,65.0,94,81,56,30.10,30.00,7,2,12,0.01
2012-11-4,84.0,73.5,67.0,76.0,68.1,65.0,94,84,58,30.09,29.98,7,1,16,0.23
2012-11-5,81.0,73.3,67.0,73.0,69.5,64.0,94,88,75,30.04,29.88,7,3,15,0.16
2012-11-6,75.0,66.2,56.0,56.0,53.2,50.0,90,65,42,30.07,30.00,8,3,13,0.49
2012-11-7,81.0,65.5,54.0,57.0,50.3,42.0,93,63,25,30.12,30.02,6,2,12,0.01
2012-11-8,75.0,63.2,54.0,56.0,51.6,47.0,84,68,41,30.22,30.11,7,2,13,0.01
2012-11-9,81.0,68.4,56.0,67.0,61.4,53.0,93,79,60,30.17,30.08,7,3,14,0.00
2012-11-10,85.0,73.7,63.0,70.0,66.2,61.0,93,79,54,30.13,30.01,10,5,18,0.00
2012-11-11,78.0,75.6,73.0,75.0,72.1,68.0,93,89,78,30.05,29.95,10,5,18,0.77
2012-11-12,76.0,64.3,52.0,74.0,52.2,36.0,93,68,27,30.39,30.03,13,6,23,0.02
2012-11-13,64.0,54.0,45.0,46.0,40.1,34.0,80,62,35,30.44,30.28,12,4,22,0.01
2012-11-14,69.0,55.9,46.0,44.0,40.2,-99.9,83,59,31,30.35,30.23,7,2,15,0.00
2012-11-15,69.0,55.2,43.0,47.0,41.5,36.0,87,63,31,30.30,30.18,6,2,10,0.00
2012-11-16,71.0,57.6,46.0,52.0,46.3,42.0,89,68,40,30.31,30.22,7,3,13,0.00
2012-11-17,74.0,58.5,46.0,48.0,44.1,41.0,86,63,31,30.35,30.24,5,2,12,0.00
2012-11-18,74.0,58.8,47.0,52.0,44.6,40.0,85,63,29,30.30,30.20,5,1,11,0.00
2012-11-19,76.0,60.7,49.0,57.0,50.6,45.0,91,72,41,30.26,30.14,5,1,8,0.00
2012-11-20,80.0,63.8,51.0,61.0,54.3,49.0,94,75,37,30.21,30.10,6,1,10,0.00
2012-11-21,84.0,67.4,54.0,66.0,57.3,51.0,93,73,42,30.22,30.11,6,2,11,0.01
2012-11-22,80.0,65.3,52.0,63.0,55.0,48.0,91,72,37,30.21,30.11,6,2,11,0.01
2012-11-23,82.0,69.5,60.0,68.0,63.3,52.0,93,81,57,30.26,30.14,7,2,13,0.00
2012-11-24,67.0,57.3,46.0,54.0,42.2,38.0,84,59,35,30.32,30.16,8,3,14,0.00
2012-11-25,75.0,60.1,44.0,63.0,52.3,40.0,89,77,54,30.16,30.00,6,2,12,0.00
2012-11-26,83.0,74.2,67.0,76.0,70.4,63.0,93,88,73,30.03,29.95,10,4,16,0.81
2012-11-27,73.0,63.9,51.0,70.0,60.1,48.0,93,88,76,30.31,30.01,9,3,16,0.22
2012-11-28,67.0,54.0,46.0,52.0,46.9,44.0,92,79,48,30.42,30.28,7,2,12,0.01
2012-11-29,71.0,57.8,47.0,58.0,50.3,42.0,91,77,53,30.32,30.17,6,2,10,0.01
2012-11-30,78.0,66.9,54.0,67.0,61.5,51.0,93,83,59,30.21,30.12,7,3,12,0.00
2012-12-1,82.0,72.3,65.0,71.0,67.1,63.0,93,84,64,30.18,30.09,6,3,11,0.00
2012-12-2,84.0,74.6,65.0,73.0,69.3,63.0,94,84,65,30.19,30.11,8,4,12,0.02
2012-12-3,82.0,74.7,70.0,73.0,70.5,67.0,92,87,71,30.12,30.03,10,5,17,0.66
2012-12-4,81.0,74.0,68.0,75.0,70.7,65.0,93,89,79,30.16,30.05,8,2,13,0.67
2012-12-5,77.0,68.6,61.0,67.0,63.9,58.0,93,85,68,30.14,30.02,6,3,12,0.02
2012-12-6,77.0,65.4,61.0,65.0,59.4,-99.9,93,85,58,30.02,29.89,4,1,7,0.01
2012-12-7,79.0,69.2,59.0,69.0,64.3,57.0,94,85,69,29.93,29.83,7,3,12,0.01
2012-12-8,83.0,73.7,69.0,72.0,69.2,66.0,93,86,67,29.94,29.85,8,3,13,0.01
2012-12-9,83.0,76.4,70.0,76.0,72.0,68.0,94,87,71,29.92,29.80,11,4,17,0.01
2012-12-10,77.0,62.6,48.0,74.0,55.6,39.0,91,78,59,30.05,29.72,14,6,24,0.11
2012-12-11,60.0,49.9,41.0,41.0,38.7,36.0,85,67,42,30.18,30.04,8,3,15,0.01
2012-12-12,64.0,50.4,41.0,44.0,37.3,29.0,87,65,28,30.31,30.17,7,2,13,0.00
2012-12-13,67.0,51.1,39.0,44.0,37.6,32.0,86,64,28,30.35,30.21,7,2,13,0.00
2012-12-14,70.0,59.3,48.0,61.0,52.8,39.0,89,79,67,30.23,29.98,9,4,14,0.00
2012-12-15,81.0,72.4,64.0,72.0,67.9,61.0,92,86,71,29.99,29.88,10,4,17,0.00
2012-12-16,80.0,72.1,68.0,74.0,69.1,65.0,93,90,73,29.88,29.76,12,3,20,2.21
2012-12-17,75.0,67.2,54.0,67.0,56.9,45.0,94,73,35,29.91,29.76,9,3,16,1.83
2012-12-18,78.0,65.3,51.0,64.0,57.2,46.0,91,77,55,29.96,29.88,9,2,15,0.00
2012-12-19,82.0,74.0,63.0,75.0,69.6,61.0,93,86,73,29.91,29.75,12,6,21,0.41
2012-12-20,77.0,61.0,46.0,75.0,44.6,25.0,93,57,32,30.37,29.75,15,8,27,0.44
2012-12-21,67.0,51.5,40.0,45.0,33.3,22.0,85,55,21,30.47,30.33,6,2,10,0.02
2012-12-22,69.0,56.4,43.0,55.0,44.9,30.0,93,70,23,30.38,30.14,6,2,12,0.00
2012-12-23,75.0,69.2,61.0,68.0,63.8,55.0,88,83,74,30.15,29.89,7,4,13,0.00
2012-12-24,81.0,72.6,67.0,70.0,67.3,65.0,94,84,60,29.93,29.77,9,3,14,0.00
2012-12-25,79.0,68.6,48.0,73.0,61.7,39.0,93,79,44,29.90,29.50,15,8,28,0.54
2012-12-26,49.0,45.3,41.0,41.0,38.7,36.0,88,78,70,30.16,29.90,12,5,23,0.05
2012-12-27,59.0,49.8,37.0,56.0,45.0,34.0,91,84,71,30.13,29.89,10,3,17,0.01
2012-12-28,73.0,62.9,51.0,71.0,58.9,44.0,93,87,76,30.06,29.72,13,8,23,0.90
2012-12-29,55.0,48.9,43.0,44.0,35.9,29.0,78,62,37,30.42,30.05,11,6,20,0.03
2012-12-30,55.0,46.4,37.0,44.0,36.7,32.0,86,70,46,30.49,30.27,9,2,15,0.00
2012-12-31,69.0,58.8,47.0,66.0,53.4,42.0,90,82,73,30.29,29.95,10,5,15,0.01
2013-1-1,73.0,63.2,55.0,70.0,60.2,51.0,92,90,85,30.14,29.86,10,6,18,1.88